Time;durP1;ratioP1;P1;durP2;ratioP2;P2;SDS_P1;SDS_P2;PMS_P1;PMS_P2;Temp;Humidity;BMP_temperature;BMP_pressure;BME280_temperature;BME280_humidity;BME280_pressure;Samples;Min_cycle;Max_cycle;Signal;HPM_P1;HPM_P2
2023/09/27 00:00:31;;;;;;;11.25;8.23;;;;;;;;;;5044676;28;20400;-80
2023/09/27 00:02:58;;;;;;;9.02;6.80;;;;;;;;;;5063021;28;20032;-80
2023/09/27 00:05:23;;;;;;;8.63;6.78;;;;;;;;;;5047653;28;20020;-81
2023/09/27 00:07:51;;;;;;;11.95;7.05;;;;;;;;;;5062514;28;20166;-81
2023/09/27 00:10:17;;;;;;;7.47;5.78;;;;;;;;;;5062123;28;20027;-83
2023/09/27 00:12:43;;;;;;;10.40;6.70;;;;;;;;;;5065917;28;20598;-81
2023/09/27 00:15:10;;;;;;;7.55;5.90;;;;;;;;;;5046889;28;20028;-80
2023/09/27 00:17:35;;;;;;;7.35;6.22;;;;;;;;;;5072863;28;20024;-81
2023/09/27 00:20:00;;;;;;;7.20;5.20;;;;;;;;;;5051522;28;20025;-80
2023/09/27 00:22:27;;;;;;;7.05;5.40;;;;;;;;;;5070752;28;20089;-86
2023/09/27 00:24:52;;;;;;;8.23;5.15;;;;;;;;;;5055899;28;20024;-87
2023/09/27 00:27:18;;;;;;;9.10;5.20;;;;;;;;;;5068775;28;20031;-80
2023/09/27 00:29:43;;;;;;;9.00;4.88;;;;;;;;;;5074243;28;20100;-81
2023/09/27 00:32:08;;;;;;;8.32;5.65;;;;;;;;;;5044267;28;20100;-80
2023/09/27 00:34:34;;;;;;;9.45;5.70;;;;;;;;;;5065264;28;20035;-80
2023/09/27 00:37:00;;;;;;;7.68;5.55;;;;;;;;;;5048658;28;20029;-81
2023/09/27 00:39:26;;;;;;;8.75;5.70;;;;;;;;;;5051001;28;20074;-80
2023/09/27 00:41:51;;;;;;;8.50;5.90;;;;;;;;;;5045736;28;20032;-80
2023/09/27 00:44:16;;;;;;;5.65;4.88;;;;;;;;;;5050580;28;20071;-81
2023/09/27 00:46:43;;;;;;;7.25;5.22;;;;;;;;;;5054509;28;20119;-81
2023/09/27 00:49:09;;;;;;;9.18;5.85;;;;;;;;;;5047568;28;20070;-80
2023/09/27 00:51:35;;;;;;;7.10;5.20;;;;;;;;;;5070838;28;20032;-80
2023/09/27 00:54:01;;;;;;;8.55;5.90;;;;;;;;;;5064514;28;20040;-80
2023/09/27 00:56:27;;;;;;;7.30;5.45;;;;;;;;;;5049791;28;20033;-81
2023/09/27 00:58:53;;;;;;;9.68;6.30;;;;;;;;;;5064838;28;20047;-80
2023/09/27 01:01:19;;;;;;;8.32;5.45;;;;;;;;;;5061487;28;20492;-80
2023/09/27 01:03:45;;;;;;;6.85;5.32;;;;;;;;;;5063452;28;20117;-80
2023/09/27 01:06:11;;;;;;;7.20;5.43;;;;;;;;;;5049783;28;20036;-81
2023/09/27 01:08:36;;;;;;;7.63;5.40;;;;;;;;;;5046440;28;20028;-80
2023/09/27 01:11:04;;;;;;;6.80;5.88;;;;;;;;;;5046486;28;20032;-81
2023/09/27 01:13:29;;;;;;;8.50;5.80;;;;;;;;;;5062167;28;20076;-82
2023/09/27 01:15:55;;;;;;;7.78;6.45;;;;;;;;;;5045641;28;20089;-80
2023/09/27 01:18:20;;;;;;;7.57;5.78;;;;;;;;;;5061307;28;20040;-81
2023/09/27 01:20:45;;;;;;;8.05;5.05;;;;;;;;;;5047394;28;20475;-80
2023/09/27 01:23:11;;;;;;;9.75;5.70;;;;;;;;;;5050852;28;20028;-80
2023/09/27 01:25:38;;;;;;;9.40;5.30;;;;;;;;;;5053887;28;20031;-80
2023/09/27 01:28:09;;;;;;;7.43;5.70;;;;;;;;;;5052421;28;20027;-80
2023/09/27 01:30:36;;;;;;;7.78;4.95;;;;;;;;;;5049219;28;20033;-80
2023/09/27 01:33:09;;;;;;;7.47;4.93;;;;;;;;;;5063050;28;20052;-80
2023/09/27 01:35:41;;;;;;;6.80;4.68;;;;;;;;;;5030841;28;20492;-80
2023/09/27 01:38:09;;;;;;;7.63;5.00;;;;;;;;;;5045321;28;20032;-87
2023/09/27 01:40:38;;;;;;;6.47;5.22;;;;;;;;;;5067061;28;20029;-87
2023/09/27 01:43:04;;;;;;;6.50;4.80;;;;;;;;;;5049434;28;20037;-87
2023/09/27 01:45:30;;;;;;;8.95;5.50;;;;;;;;;;5065179;28;20029;-86
2023/09/27 01:47:57;;;;;;;6.65;5.28;;;;;;;;;;5064525;28;20026;-85
2023/09/27 01:50:24;;;;;;;7.75;5.07;;;;;;;;;;5045092;28;20025;-87
2023/09/27 01:52:53;;;;;;;9.68;5.40;;;;;;;;;;5068914;28;20499;-87
2023/09/27 01:55:18;;;;;;;6.25;4.93;;;;;;;;;;5043308;28;20112;-87
2023/09/27 01:57:45;;;;;;;6.57;5.13;;;;;;;;;;5043385;28;20108;-87
2023/09/27 02:00:14;;;;;;;7.45;5.10;;;;;;;;;;5047330;28;20029;-84
2023/09/27 02:02:59;;;;;;;7.45;6.00;;;;;;;;;;5067496;28;20037;-86
2023/09/27 02:05:26;;;;;;;7.47;5.63;;;;;;;;;;5047430;28;20561;-87
2023/09/27 02:07:51;;;;;;;6.97;5.50;;;;;;;;;;5044304;28;20028;-88
2023/09/27 02:10:17;;;;;;;7.57;6.28;;;;;;;;;;5048381;28;20366;-87
2023/09/27 02:12:43;;;;;;;6.90;5.70;;;;;;;;;;5069021;28;20037;-80
2023/09/27 02:15:10;;;;;;;9.40;6.70;;;;;;;;;;5052424;28;20423;-80
2023/09/27 02:17:36;;;;;;;6.82;5.50;;;;;;;;;;5066359;28;20111;-80
2023/09/27 02:20:12;;;;;;;8.43;6.00;;;;;;;;;;5064753;28;20060;-80
2023/09/27 02:22:40;;;;;;;9.52;6.32;;;;;;;;;;5047044;28;20033;-80
2023/09/27 02:25:11;;;;;;;8.82;6.40;;;;;;;;;;5063775;28;20857;-80
2023/09/27 02:27:37;;;;;;;8.32;5.88;;;;;;;;;;5063597;28;20043;-86
2023/09/27 02:30:06;;;;;;;9.25;6.72;;;;;;;;;;5067681;28;20024;-80
2023/09/27 02:32:31;;;;;;;8.50;6.60;;;;;;;;;;5065580;28;20483;-81
2023/09/27 02:34:57;;;;;;;8.32;6.60;;;;;;;;;;5066301;28;20035;-80
2023/09/27 02:37:24;;;;;;;9.82;6.63;;;;;;;;;;5061992;28;20055;-80
2023/09/27 02:39:49;;;;;;;8.45;6.05;;;;;;;;;;5047488;28;20111;-87
2023/09/27 02:42:14;;;;;;;8.15;6.13;;;;;;;;;;5047307;28;20127;-86
2023/09/27 02:44:40;;;;;;;8.63;7.15;;;;;;;;;;5064606;28;20032;-84
2023/09/27 02:47:08;;;;;;;7.97;6.28;;;;;;;;;;5043453;28;20408;-86
2023/09/27 02:49:37;;;;;;;8.75;6.78;;;;;;;;;;5060182;28;20089;-86
2023/09/27 02:52:03;;;;;;;10.77;8.07;;;;;;;;;;5067246;28;20056;-87
2023/09/27 02:54:28;;;;;;;9.25;7.18;;;;;;;;;;5045389;28;20973;-87
2023/09/27 02:56:54;;;;;;;8.57;6.85;;;;;;;;;;5060756;28;20072;-87
2023/09/27 02:59:19;;;;;;;8.95;7.07;;;;;;;;;;5063192;28;20427;-86
2023/09/27 03:01:45;;;;;;;9.38;7.65;;;;;;;;;;5066275;28;20025;-86
2023/09/27 03:04:11;;;;;;;12.30;7.50;;;;;;;;;;5042112;28;20036;-87
2023/09/27 03:06:37;;;;;;;8.82;7.18;;;;;;;;;;5044681;28;20028;-87
2023/09/27 03:09:05;;;;;;;11.45;7.10;;;;;;;;;;5064489;28;20107;-87
2023/09/27 03:11:33;;;;;;;8.70;7.55;;;;;;;;;;5046589;28;20500;-87
2023/09/27 03:13:59;;;;;;;8.68;6.75;;;;;;;;;;5061633;28;20021;-87
2023/09/27 03:16:25;;;;;;;8.13;7.03;;;;;;;;;;5071286;28;20024;-85
2023/09/27 03:18:50;;;;;;;13.02;6.75;;;;;;;;;;5056699;28;20027;-86
2023/09/27 03:21:17;;;;;;;8.10;6.55;;;;;;;;;;5066879;28;20029;-84
2023/09/27 03:23:42;;;;;;;8.43;6.97;;;;;;;;;;5057321;28;20044;-86
2023/09/27 03:26:08;;;;;;;10.45;6.63;;;;;;;;;;5046373;28;20020;-86
2023/09/27 03:28:33;;;;;;;9.40;6.93;;;;;;;;;;5048442;28;20020;-86
2023/09/27 03:31:00;;;;;;;9.30;7.20;;;;;;;;;;5049745;28;20017;-84
2023/09/27 03:33:25;;;;;;;9.90;7.55;;;;;;;;;;5052654;28;20055;-79
2023/09/27 03:35:51;;;;;;;8.63;6.95;;;;;;;;;;5056997;28;20062;-79
2023/09/27 03:38:16;;;;;;;8.88;7.10;;;;;;;;;;5067068;28;20400;-79
2023/09/27 03:40:42;;;;;;;10.70;7.43;;;;;;;;;;5049909;28;20025;-79
2023/09/27 03:43:07;;;;;;;8.20;6.90;;;;;;;;;;5050827;28;20071;-79
2023/09/27 03:45:35;;;;;;;9.07;6.93;;;;;;;;;;5073210;28;20112;-79
2023/09/27 03:48:02;;;;;;;8.05;6.95;;;;;;;;;;5067308;28;20028;-80
2023/09/27 03:50:27;;;;;;;9.63;6.45;;;;;;;;;;5067397;28;20024;-80
2023/09/27 03:52:56;;;;;;;7.63;6.28;;;;;;;;;;5076180;28;20032;-79
2023/09/27 03:55:21;;;;;;;8.57;6.95;;;;;;;;;;5069901;28;20067;-79
2023/09/27 03:57:47;;;;;;;9.27;6.60;;;;;;;;;;5056794;28;20060;-79
2023/09/27 04:00:18;;;;;;;8.65;6.68;;;;;;;;;;5070036;28;20028;-79
2023/09/27 04:02:44;;;;;;;10.10;7.47;;;;;;;;;;5066405;28;20017;-79
2023/09/27 04:05:10;;;;;;;9.13;7.03;;;;;;;;;;5058969;28;20079;-79
2023/09/27 04:07:36;;;;;;;9.70;6.93;;;;;;;;;;5043019;28;20044;-79
2023/09/27 04:10:03;;;;;;;8.98;7.13;;;;;;;;;;5052500;28;20519;-79
2023/09/27 04:12:28;;;;;;;10.60;6.82;;;;;;;;;;5074514;28;20031;-79
2023/09/27 04:14:54;;;;;;;8.65;6.40;;;;;;;;;;5070070;28;20477;-80
2023/09/27 04:17:19;;;;;;;8.07;6.75;;;;;;;;;;5051162;28;20048;-79
2023/09/27 04:19:45;;;;;;;8.27;7.00;;;;;;;;;;5053255;28;20036;-79
2023/09/27 04:22:10;;;;;;;9.25;7.03;;;;;;;;;;5074985;28;20055;-79
2023/09/27 04:24:36;;;;;;;9.25;6.60;;;;;;;;;;5079822;28;20024;-79
2023/09/27 04:27:02;;;;;;;7.85;6.50;;;;;;;;;;5068997;28;20020;-79
2023/09/27 04:29:27;;;;;;;9.07;7.00;;;;;;;;;;5054535;28;20040;-79
2023/09/27 04:31:53;;;;;;;7.47;6.70;;;;;;;;;;5064393;28;20032;-79
2023/09/27 04:34:18;;;;;;;9.48;7.03;;;;;;;;;;5069421;28;20066;-79
2023/09/27 04:36:44;;;;;;;7.90;6.47;;;;;;;;;;5067020;28;20439;-79
2023/09/27 04:39:12;;;;;;;10.07;6.93;;;;;;;;;;5066928;28;20024;-79
2023/09/27 04:41:39;;;;;;;8.93;6.97;;;;;;;;;;5052266;28;20028;-79
2023/09/27 04:44:05;;;;;;;9.73;6.78;;;;;;;;;;5047613;28;20032;-79
2023/09/27 04:46:31;;;;;;;6.90;6.20;;;;;;;;;;5050025;28;20025;-79
2023/09/27 04:48:57;;;;;;;8.20;6.15;;;;;;;;;;5048012;28;20059;-79
2023/09/27 04:51:22;;;;;;;8.40;7.00;;;;;;;;;;5050133;28;21375;-80
2023/09/27 04:53:47;;;;;;;9.57;6.93;;;;;;;;;;5065363;28;20025;-79
2023/09/27 04:56:13;;;;;;;8.40;6.63;;;;;;;;;;5062510;28;20433;-80
2023/09/27 04:58:41;;;;;;;9.45;6.60;;;;;;;;;;5051832;28;20381;-80
2023/09/27 05:01:06;;;;;;;8.85;7.28;;;;;;;;;;5052778;28;20078;-86
2023/09/27 05:03:32;;;;;;;9.55;7.63;;;;;;;;;;5052493;28;20052;-86
2023/09/27 05:05:57;;;;;;;8.68;7.03;;;;;;;;;;5069816;28;20020;-85
2023/09/27 05:08:24;;;;;;;7.85;6.57;;;;;;;;;;5071392;28;20043;-84
2023/09/27 05:10:50;;;;;;;9.07;6.93;;;;;;;;;;5069547;28;20522;-86
2023/09/27 05:13:15;;;;;;;8.43;7.07;;;;;;;;;;5050090;28;20083;-86
2023/09/27 05:15:40;;;;;;;10.32;7.38;;;;;;;;;;5057888;28;20036;-86
2023/09/27 05:18:06;;;;;;;9.40;7.13;;;;;;;;;;5049252;28;20491;-85
2023/09/27 05:20:31;;;;;;;9.02;7.47;;;;;;;;;;5053509;28;20028;-85
2023/09/27 05:22:56;;;;;;;8.82;7.50;;;;;;;;;;5065338;28;20016;-80
2023/09/27 05:25:22;;;;;;;9.18;7.10;;;;;;;;;;5052325;28;20452;-79
2023/09/27 05:27:47;;;;;;;9.48;7.60;;;;;;;;;;5054189;28;20420;-79
2023/09/27 05:30:15;;;;;;;11.90;8.90;;;;;;;;;;5053364;28;20043;-79
2023/09/27 05:32:42;;;;;;;10.88;8.10;;;;;;;;;;5070179;28;20405;-80
2023/09/27 05:35:08;;;;;;;9.45;7.57;;;;;;;;;;5054598;28;20048;-80
2023/09/27 05:37:33;;;;;;;9.20;8.10;;;;;;;;;;5052812;28;20102;-80
2023/09/27 05:39:58;;;;;;;8.90;7.50;;;;;;;;;;5063002;28;20048;-79
2023/09/27 05:42:24;;;;;;;10.30;7.40;;;;;;;;;;5050008;28;20492;-79
2023/09/27 05:44:49;;;;;;;10.73;7.50;;;;;;;;;;5066811;28;20021;-79
2023/09/27 05:47:15;;;;;;;10.80;7.95;;;;;;;;;;5049517;28;20024;-80
2023/09/27 05:49:41;;;;;;;11.05;7.70;;;;;;;;;;5063516;28;20025;-79
2023/09/27 05:52:11;;;;;;;9.63;7.15;;;;;;;;;;5051755;28;20048;-81
2023/09/27 05:54:37;;;;;;;10.75;7.32;;;;;;;;;;5045755;28;20419;-79
2023/09/27 05:57:03;;;;;;;10.45;7.63;;;;;;;;;;5049391;28;20029;-79
2023/09/27 05:59:28;;;;;;;10.43;7.68;;;;;;;;;;5047610;28;20112;-79
2023/09/27 06:01:53;;;;;;;9.93;7.60;;;;;;;;;;5045234;28;20114;-79
2023/09/27 06:04:19;;;;;;;10.82;8.18;;;;;;;;;;5048342;28;20393;-79
2023/09/27 06:06:46;;;;;;;9.40;7.93;;;;;;;;;;5064535;28;20519;-80
2023/09/27 06:09:11;;;;;;;9.65;7.68;;;;;;;;;;5060529;28;20109;-80
2023/09/27 06:11:40;;;;;;;10.43;7.72;;;;;;;;;;5053277;28;20446;-80
2023/09/27 06:14:10;;;;;;;11.15;7.78;;;;;;;;;;5043411;28;20025;-80
2023/09/27 06:16:39;;;;;;;10.27;8.02;;;;;;;;;;5068573;28;20488;-80
2023/09/27 06:19:04;;;;;;;11.48;8.02;;;;;;;;;;5056024;28;20511;-85
2023/09/27 06:21:30;;;;;;;11.07;8.35;;;;;;;;;;5069178;28;20028;-85
2023/09/27 06:23:55;;;;;;;9.27;8.00;;;;;;;;;;5067377;28;20028;-86
2023/09/27 06:26:21;;;;;;;10.43;8.13;;;;;;;;;;5061402;28;20051;-84
2023/09/27 06:28:46;;;;;;;10.95;8.02;;;;;;;;;;5071040;28;20036;-86
2023/09/27 06:31:13;;;;;;;11.20;8.18;;;;;;;;;;5065809;28;20380;-85
2023/09/27 06:33:39;;;;;;;11.27;8.52;;;;;;;;;;5043091;28;20038;-85
2023/09/27 06:36:08;;;;;;;10.02;8.40;;;;;;;;;;5061848;28;20787;-85
2023/09/27 06:38:34;;;;;;;11.32;7.80;;;;;;;;;;5056694;28;20112;-86
2023/09/27 06:41:00;;;;;;;10.02;7.90;;;;;;;;;;5060535;28;20532;-84
2023/09/27 06:43:28;;;;;;;8.27;7.13;;;;;;;;;;5061075;28;20086;-84
2023/09/27 06:45:53;;;;;;;11.15;8.75;;;;;;;;;;5045674;28;20035;-86
2023/09/27 06:48:20;;;;;;;11.93;8.05;;;;;;;;;;5054470;28;20028;-85
2023/09/27 06:50:46;;;;;;;12.05;8.50;;;;;;;;;;5042352;28;20147;-81
2023/09/27 06:53:13;;;;;;;10.32;7.97;;;;;;;;;;5037440;28;20043;-84
2023/09/27 06:55:39;;;;;;;9.82;8.20;;;;;;;;;;5058148;28;20519;-85
2023/09/27 06:58:04;;;;;;;8.52;6.68;;;;;;;;;;5057925;28;20053;-84
2023/09/27 07:00:30;;;;;;;10.30;8.27;;;;;;;;;;5045319;28;20024;-85
2023/09/27 07:02:55;;;;;;;9.23;7.50;;;;;;;;;;5043001;28;20094;-85
2023/09/27 07:05:21;;;;;;;7.88;6.85;;;;;;;;;;5056092;28;20036;-84
2023/09/27 07:07:47;;;;;;;8.80;7.40;;;;;;;;;;5056479;28;20082;-85
2023/09/27 07:10:13;;;;;;;8.75;7.00;;;;;;;;;;5056819;28;20480;-84
2023/09/27 07:12:38;;;;;;;9.35;7.15;;;;;;;;;;5059325;28;20197;-85
2023/09/27 07:15:10;;;;;;;9.57;7.50;;;;;;;;;;5053893;28;20117;-84
2023/09/27 07:17:36;;;;;;;9.70;7.10;;;;;;;;;;5046024;28;20086;-85
2023/09/27 07:20:09;;;;;;;11.15;8.02;;;;;;;;;;5040480;28;20451;-82
2023/09/27 07:22:36;;;;;;;9.00;7.20;;;;;;;;;;5058796;28;20025;-82
2023/09/27 07:25:12;;;;;;;11.80;7.82;;;;;;;;;;5035427;28;20060;-85
2023/09/27 07:27:42;;;;;;;9.93;8.02;;;;;;;;;;5038186;28;20024;-85
2023/09/27 07:30:11;;;;;;;8.93;6.82;;;;;;;;;;5040377;28;20032;-86
2023/09/27 07:32:39;;;;;;;9.73;7.32;;;;;;;;;;5045742;28;20036;-86
2023/09/27 07:35:09;;;;;;;10.32;7.28;;;;;;;;;;5042924;28;20411;-85
2023/09/27 07:37:37;;;;;;;9.98;7.20;;;;;;;;;;5061430;28;20036;-86
2023/09/27 07:40:09;;;;;;;9.57;7.70;;;;;;;;;;5057953;28;20072;-84
2023/09/27 07:42:42;;;;;;;10.10;8.00;;;;;;;;;;5062082;28;20162;-85
2023/09/27 07:45:16;;;;;;;10.88;8.15;;;;;;;;;;5045871;28;20040;-86
2023/09/27 07:47:42;;;;;;;11.45;9.57;;;;;;;;;;5042024;28;20070;-86
2023/09/27 07:50:10;;;;;;;11.75;9.70;;;;;;;;;;5046767;28;20052;-87
2023/09/27 07:52:36;;;;;;;13.23;10.30;;;;;;;;;;5063514;28;20032;-86
2023/09/27 07:55:04;;;;;;;13.25;11.23;;;;;;;;;;5062583;28;20028;-83
2023/09/27 07:57:29;;;;;;;15.77;10.93;;;;;;;;;;5058511;28;20029;-86
2023/09/27 07:59:55;;;;;;;14.82;11.73;;;;;;;;;;5062007;28;20408;-87
2023/09/27 08:02:21;;;;;;;13.27;11.55;;;;;;;;;;5068038;28;20103;-86
2023/09/27 08:04:48;;;;;;;12.75;11.45;;;;;;;;;;5066171;28;20103;-84
2023/09/27 08:07:13;;;;;;;12.52;10.95;;;;;;;;;;5065979;28;20017;-86
2023/09/27 08:09:42;;;;;;;13.35;10.88;;;;;;;;;;5042321;28;20063;-86
2023/09/27 08:12:07;;;;;;;13.00;11.20;;;;;;;;;;5053616;28;20066;-85
2023/09/27 08:14:36;;;;;;;13.02;10.98;;;;;;;;;;5046187;28;20037;-87
2023/09/27 08:17:02;;;;;;;13.88;11.15;;;;;;;;;;5050762;28;20029;-83
2023/09/27 08:19:28;;;;;;;12.57;11.15;;;;;;;;;;5064426;28;20031;-85
2023/09/27 08:21:55;;;;;;;14.40;11.50;;;;;;;;;;5063476;28;20032;-80
2023/09/27 08:24:22;;;;;;;14.80;12.18;;;;;;;;;;5037819;28;20459;-80
2023/09/27 08:26:48;;;;;;;15.18;11.85;;;;;;;;;;5037595;28;20060;-80
2023/09/27 08:29:13;;;;;;;13.25;11.85;;;;;;;;;;5044201;28;20075;-81
2023/09/27 08:31:39;;;;;;;14.65;12.65;;;;;;;;;;5054323;28;20020;-80
2023/09/27 08:34:04;;;;;;;16.23;13.13;;;;;;;;;;5046039;28;20411;-79
2023/09/27 08:36:30;;;;;;;15.40;12.70;;;;;;;;;;5066158;28;21605;-80
2023/09/27 08:38:56;;;;;;;13.80;12.25;;;;;;;;;;5050105;28;21525;-88
2023/09/27 08:41:23;;;;;;;15.57;11.75;;;;;;;;;;5051231;28;20020;-85
2023/09/27 08:43:50;;;;;;;17.00;12.57;;;;;;;;;;5068467;28;20377;-87
2023/09/27 08:46:18;;;;;;;16.10;12.07;;;;;;;;;;5071889;28;20526;-86
2023/09/27 08:48:44;;;;;;;13.63;12.10;;;;;;;;;;5049761;28;20107;-86
2023/09/27 08:51:10;;;;;;;13.73;12.32;;;;;;;;;;5056450;28;20027;-88
2023/09/27 08:53:38;;;;;;;14.68;12.18;;;;;;;;;;5061970;28;20032;-87
2023/09/27 08:56:06;;;;;;;13.75;11.50;;;;;;;;;;5052510;28;20055;-87
2023/09/27 08:58:34;;;;;;;14.07;11.73;;;;;;;;;;5054678;28;20111;-87
2023/09/27 09:01:00;;;;;;;14.65;11.70;;;;;;;;;;5056675;28;20029;-86
2023/09/27 09:03:25;;;;;;;13.48;12.05;;;;;;;;;;5053647;28;20044;-88
2023/09/27 09:05:51;;;;;;;14.73;12.60;;;;;;;;;;5055835;28;20039;-87
2023/09/27 09:08:16;;;;;;;14.85;11.85;;;;;;;;;;5064586;28;20495;-88
2023/09/27 09:10:43;;;;;;;14.23;11.98;;;;;;;;;;5053267;28;20494;-87
2023/09/27 09:13:08;;;;;;;15.25;12.10;;;;;;;;;;5051172;28;20050;-87
2023/09/27 09:15:40;;;;;;;13.73;11.32;;;;;;;;;;5053180;28;20036;-87
2023/09/27 09:18:29;;;;;;;14.90;10.93;;;;;;;;;;5051150;28;20029;-88
2023/09/27 09:21:08;;;;;;;17.88;12.73;;;;;;;;;;5052449;28;20281;-86
2023/09/27 09:23:36;;;;;;;15.73;11.93;;;;;;;;;;5071513;28;20155;-87
2023/09/27 09:26:09;;;;;;;15.88;11.88;;;;;;;;;;5050372;28;20250;-88
2023/09/27 09:28:51;;;;;;;12.48;11.13;;;;;;;;;;5054107;28;20475;-86
2023/09/27 09:31:27;;;;;;;15.10;11.30;;;;;;;;;;5068717;28;20024;-87
2023/09/27 09:34:04;;;;;;;12.35;10.32;;;;;;;;;;5056186;28;20029;-87
2023/09/27 09:36:30;;;;;;;11.80;9.93;;;;;;;;;;5045559;28;20039;-87
2023/09/27 09:39:19;;;;;;;13.43;9.90;;;;;;;;;;5069881;28;20024;-87
2023/09/27 09:41:45;;;;;;;12.52;10.55;;;;;;;;;;5059908;28;20028;-86
2023/09/27 09:44:21;;;;;;;13.23;10.38;;;;;;;;;;5071069;28;20052;-88
2023/09/27 09:46:48;;;;;;;15.98;10.95;;;;;;;;;;5049022;28;20035;-87
2023/09/27 09:49:15;;;;;;;11.93;10.35;;;;;;;;;;5045286;28;20073;-82
2023/09/27 09:51:50;;;;;;;15.23;12.40;;;;;;;;;;5068557;28;20025;-81
2023/09/27 09:54:37;;;;;;;14.05;11.60;;;;;;;;;;5064961;28;20035;-81
2023/09/27 09:57:05;;;;;;;15.02;11.50;;;;;;;;;;5052697;28;20055;-80
2023/09/27 09:59:40;;;;;;;13.10;10.70;;;;;;;;;;5069563;28;20055;-80
2023/09/27 10:02:26;;;;;;;13.80;10.55;;;;;;;;;;5067770;28;20028;-81
2023/09/27 10:04:55;;;;;;;11.80;9.43;;;;;;;;;;5052474;28;20028;-81
2023/09/27 10:07:22;;;;;;;12.93;10.05;;;;;;;;;;5066651;28;20108;-81
2023/09/27 10:09:49;;;;;;;13.93;10.60;;;;;;;;;;5068336;28;20081;-80
2023/09/27 10:12:17;;;;;;;13.65;11.00;;;;;;;;;;5048784;28;20408;-80
2023/09/27 10:14:44;;;;;;;14.77;10.85;;;;;;;;;;5049780;28;20067;-81
2023/09/27 10:17:21;;;;;;;13.00;10.27;;;;;;;;;;5069833;28;20086;-81
2023/09/27 10:20:12;;;;;;;11.82;10.25;;;;;;;;;;5053658;28;20051;-84
2023/09/27 10:22:45;;;;;;;10.73;8.55;;;;;;;;;;5047064;28;20024;-81
2023/09/27 10:25:30;;;;;;;;;;;;;;;;;;5069654;28;20462;-81
2023/09/27 10:28:01;;;;;;;10.43;8.38;;;;;;;;;;5065510;28;19958;-82
2023/09/27 10:30:42;;;;;;;13.32;9.10;;;;;;;;;;5064733;28;20024;-80
2023/09/27 10:33:22;;;;;;;10.90;8.25;;;;;;;;;;5061640;28;20093;-81
2023/09/27 10:36:11;;;;;;;9.90;8.18;;;;;;;;;;5059751;28;20025;-81
2023/09/27 10:38:42;;;;;;;10.40;8.25;;;;;;;;;;5049976;28;20021;-81
2023/09/27 10:41:28;;;;;;;10.45;8.20;;;;;;;;;;5038639;28;20033;-80
2023/09/27 10:43:56;;;;;;;10.57;9.07;;;;;;;;;;5043456;28;20036;-81
2023/09/27 10:46:21;;;;;;;12.88;9.75;;;;;;;;;;5044976;28;20032;-81
2023/09/27 10:48:58;;;;;;;12.48;9.00;;;;;;;;;;5047875;28;20040;-81
2023/09/27 10:51:26;;;;;;;11.70;8.27;;;;;;;;;;5047571;28;20492;-81
2023/09/27 10:53:52;;;;;;;11.70;8.13;;;;;;;;;;5047892;28;20035;-81
2023/09/27 10:56:20;;;;;;;11.23;8.98;;;;;;;;;;5050416;28;20029;-82
2023/09/27 10:58:49;;;;;;;10.20;8.98;;;;;;;;;;5066011;28;20029;-88
2023/09/27 11:01:25;;;;;;;11.90;9.32;;;;;;;;;;5064041;28;20103;-88
2023/09/27 11:04:03;;;;;;;10.95;9.02;;;;;;;;;;5063615;28;20044;-88
2023/09/27 11:06:31;;;;;;;11.45;9.25;;;;;;;;;;5044672;28;20028;-88
2023/09/27 11:09:12;;;;;;;10.40;8.60;;;;;;;;;;5047997;28;20510;-87
2023/09/27 11:11:46;;;;;;;12.98;8.50;;;;;;;;;;5069778;28;20028;-89
2023/09/27 11:14:12;;;;;;;8.50;7.60;;;;;;;;;;5071320;28;20118;-89
2023/09/27 11:16:37;;;;;;;10.75;7.90;;;;;;;;;;5066689;28;20111;-88
2023/09/27 11:19:04;;;;;;;13.35;8.75;;;;;;;;;;5069252;28;20020;-81
2023/09/27 11:21:31;;;;;;;11.60;8.35;;;;;;;;;;5066493;28;20055;-81
2023/09/27 11:23:58;;;;;;;9.73;8.20;;;;;;;;;;5068530;28;20407;-81
2023/09/27 11:26:25;;;;;;;11.05;8.85;;;;;;;;;;5061804;28;20477;-82
2023/09/27 11:29:03;;;;;;;10.27;8.40;;;;;;;;;;5062719;28;20059;-82
2023/09/27 11:31:33;;;;;;;11.80;8.77;;;;;;;;;;5043782;28;20472;-82
2023/09/27 11:34:14;;;;;;;11.25;7.53;;;;;;;;;;5046840;28;20074;-82
2023/09/27 11:36:47;;;;;;;10.57;8.10;;;;;;;;;;5042434;28;20047;-87
2023/09/27 11:39:16;;;;;;;10.00;8.50;;;;;;;;;;5063986;28;20031;-84
2023/09/27 11:41:47;;;;;;;11.45;7.63;;;;;;;;;;5070261;28;20032;-86
2023/09/27 11:44:17;;;;;;;9.73;8.00;;;;;;;;;;5048509;28;20380;-87
2023/09/27 11:46:43;;;;;;;10.77;8.07;;;;;;;;;;5067382;28;20093;-86
2023/09/27 11:49:09;;;;;;;11.43;8.68;;;;;;;;;;5064116;28;20009;-86
2023/09/27 11:51:36;;;;;;;10.77;8.77;;;;;;;;;;5061978;28;20115;-87
2023/09/27 11:54:04;;;;;;;11.30;8.60;;;;;;;;;;5048083;28;20028;-87
2023/09/27 11:56:30;;;;;;;11.65;7.35;;;;;;;;;;5068121;28;20024;-86
2023/09/27 11:58:55;;;;;;;10.23;8.20;;;;;;;;;;5065126;28;20074;-86
2023/09/27 12:01:20;;;;;;;9.20;7.93;;;;;;;;;;5046051;28;20027;-87
2023/09/27 12:03:46;;;;;;;11.63;7.50;;;;;;;;;;5044055;28;20361;-87
2023/09/27 12:06:14;;;;;;;10.40;7.35;;;;;;;;;;5062664;28;20028;-87
2023/09/27 12:08:40;;;;;;;10.13;6.93;;;;;;;;;;5072330;28;20020;-89
2023/09/27 12:11:06;;;;;;;10.02;7.25;;;;;;;;;;5052665;28;20112;-87
2023/09/27 12:13:32;;;;;;;9.45;7.00;;;;;;;;;;5067393;28;20705;-88
2023/09/27 12:15:57;;;;;;;9.00;6.80;;;;;;;;;;5044871;28;20108;-89
2023/09/27 12:18:25;;;;;;;8.45;6.32;;;;;;;;;;5052135;28;20365;-87
2023/09/27 12:20:50;;;;;;;8.75;5.00;;;;;;;;;;5054101;28;20851;-86
2023/09/27 12:23:35;;;;;;;9.30;6.10;;;;;;;;;;5045505;28;20024;-89
2023/09/27 12:26:01;;;;;;;6.75;4.72;;;;;;;;;;5034541;28;20032;-89
2023/09/27 12:28:26;;;;;;;10.52;4.72;;;;;;;;;;5048451;28;20451;-87
2023/09/27 12:30:53;;;;;;;9.82;5.80;;;;;;;;;;5053585;28;20083;-87
2023/09/27 12:33:19;;;;;;;6.88;4.93;;;;;;;;;;5031622;28;20028;-88
2023/09/27 12:35:46;;;;;;;7.35;5.45;;;;;;;;;;5060451;28;20439;-87
2023/09/27 12:38:12;;;;;;;7.95;5.60;;;;;;;;;;5051457;28;20033;-89
2023/09/27 12:40:37;;;;;;;6.90;4.32;;;;;;;;;;5075988;28;20399;-88
2023/09/27 12:43:04;;;;;;;7.53;4.57;;;;;;;;;;5048289;28;20238;-88
2023/09/27 12:45:30;;;;;;;6.97;4.90;;;;;;;;;;5052386;28;20070;-87
2023/09/27 12:47:56;;;;;;;8.25;4.82;;;;;;;;;;5056730;28;20020;-89
2023/09/27 12:50:26;;;;;;;7.65;5.93;;;;;;;;;;5070794;28;20548;-88
2023/09/27 12:53:05;;;;;;;7.57;4.57;;;;;;;;;;5069875;28;20460;-88
2023/09/27 12:55:30;;;;;;;6.97;5.10;;;;;;;;;;5049457;28;20400;-89
2023/09/27 12:57:57;;;;;;;8.57;5.13;;;;;;;;;;5051861;28;20028;-86
2023/09/27 13:00:23;;;;;;;8.10;4.88;;;;;;;;;;5035812;28;20111;-88
2023/09/27 13:02:49;;;;;;;8.27;5.18;;;;;;;;;;5050425;28;20571;-89
2023/09/27 13:05:15;;;;;;;6.75;4.47;;;;;;;;;;5069470;28;20033;-88
2023/09/27 13:07:44;;;;;;;6.80;4.47;;;;;;;;;;5054204;28;20396;-88
2023/09/27 13:10:09;;;;;;;7.43;4.72;;;;;;;;;;5052798;28;20376;-83
2023/09/27 13:12:36;;;;;;;6.93;4.22;;;;;;;;;;5053144;28;20017;-83
2023/09/27 13:15:01;;;;;;;10.35;5.38;;;;;;;;;;5051214;28;20495;-84
2023/09/27 13:17:27;;;;;;;7.13;5.05;;;;;;;;;;5043918;28;20151;-82
2023/09/27 13:19:53;;;;;;;11.45;5.22;;;;;;;;;;5050821;28;20024;-82
2023/09/27 13:22:20;;;;;;;10.38;5.88;;;;;;;;;;5030080;28;20155;-81
2023/09/27 13:24:47;;;;;;;8.77;5.82;;;;;;;;;;5064683;28;20112;-82
2023/09/27 13:27:12;;;;;;;8.95;6.75;;;;;;;;;;5045179;28;20148;-81
2023/09/27 13:29:42;;;;;;;10.80;4.90;;;;;;;;;;5046326;28;20462;-81
2023/09/27 13:32:08;;;;;;;9.25;7.03;;;;;;;;;;5068837;28;20028;-81
2023/09/27 13:34:35;;;;;;;8.93;7.07;;;;;;;;;;5057995;28;20423;-81
2023/09/27 13:37:00;;;;;;;10.20;7.22;;;;;;;;;;5047691;28;20080;-81
2023/09/27 13:39:29;;;;;;;8.05;6.60;;;;;;;;;;5036372;28;20488;-81
2023/09/27 13:41:55;;;;;;;8.18;6.22;;;;;;;;;;5053835;28;20483;-81
2023/09/27 13:44:21;;;;;;;7.55;5.38;;;;;;;;;;5051291;28;20119;-81
2023/09/27 13:46:46;;;;;;;8.27;5.10;;;;;;;;;;5065712;28;20056;-81
2023/09/27 13:49:12;;;;;;;9.15;4.50;;;;;;;;;;5049812;28;20043;-81
2023/09/27 13:51:38;;;;;;;7.80;5.70;;;;;;;;;;5064064;28;20037;-80
2023/09/27 13:54:04;;;;;;;7.50;5.22;;;;;;;;;;5061752;28;20078;-80
2023/09/27 13:56:30;;;;;;;10.18;5.25;;;;;;;;;;5042501;28;20378;-80
2023/09/27 13:58:56;;;;;;;7.53;5.72;;;;;;;;;;5046198;28;20029;-80
2023/09/27 14:01:21;;;;;;;9.07;5.22;;;;;;;;;;5061391;28;20556;-80
2023/09/27 14:03:46;;;;;;;7.38;5.97;;;;;;;;;;5046250;28;20021;-80
2023/09/27 14:06:12;;;;;;;6.70;5.32;;;;;;;;;;5043630;28;20086;-81
2023/09/27 14:08:37;;;;;;;8.38;6.00;;;;;;;;;;5045106;28;20020;-80
2023/09/27 14:11:02;;;;;;;9.73;5.60;;;;;;;;;;5044795;28;20044;-80
2023/09/27 14:13:28;;;;;;;11.25;5.88;;;;;;;;;;5063331;28;20435;-80
2023/09/27 14:15:53;;;;;;;7.82;5.75;;;;;;;;;;5062133;28;20040;-80
2023/09/27 14:18:19;;;;;;;9.70;6.22;;;;;;;;;;5064938;28;20723;-80
2023/09/27 14:20:46;;;;;;;9.27;6.28;;;;;;;;;;5025180;28;22168;-80
2023/09/27 14:23:12;;;;;;;8.88;6.63;;;;;;;;;;5041701;28;20084;-78
2023/09/27 14:25:38;;;;;;;9.73;6.47;;;;;;;;;;5043490;28;20480;-79
2023/09/27 14:28:03;;;;;;;9.35;6.65;;;;;;;;;;5046896;28;20020;-80
2023/09/27 14:30:29;;;;;;;10.02;6.55;;;;;;;;;;5063216;28;20030;-80
2023/09/27 14:32:54;;;;;;;9.85;6.50;;;;;;;;;;5057868;28;20020;-80
2023/09/27 14:35:20;;;;;;;11.05;6.90;;;;;;;;;;5049310;28;20033;-80
2023/09/27 14:37:45;;;;;;;10.27;6.50;;;;;;;;;;5044330;28;20111;-81